sensor_id;sensor_type;location;lat;lon;timestamp;P1;durP1;ratioP1;P2;durP2;ratioP2
65831;SDS011;52593;42.648;23.332;2023-12-28T00:01:25;16.20;;;5.80;;
65831;SDS011;52593;42.648;23.332;2023-12-28T00:03:50;17.30;;;5.73;;
65831;SDS011;52593;42.648;23.332;2023-12-28T00:06:16;16.67;;;6.15;;
65831;SDS011;52593;42.648;23.332;2023-12-28T00:08:43;15.20;;;6.30;;
65831;SDS011;52593;42.648;23.332;2023-12-28T00:11:10;16.03;;;5.90;;
65831;SDS011;52593;42.648;23.332;2023-12-28T00:13:35;19.13;;;6.07;;
65831;SDS011;52593;42.648;23.332;2023-12-28T00:16:01;17.30;;;6.30;;
65831;SDS011;52593;42.648;23.332;2023-12-28T00:18:26;15.70;;;5.53;;
65831;SDS011;52593;42.648;23.332;2023-12-28T00:20:52;16.33;;;5.70;;
65831;SDS011;52593;42.648;23.332;2023-12-28T00:23:18;13.33;;;5.30;;
65831;SDS011;52593;42.648;23.332;2023-12-28T00:25:45;16.58;;;5.57;;
65831;SDS011;52593;42.648;23.332;2023-12-28T00:28:11;13.45;;;5.68;;
65831;SDS011;52593;42.648;23.332;2023-12-28T00:30:36;16.00;;;6.03;;
65831;SDS011;52593;42.648;23.332;2023-12-28T00:33:02;12.60;;;5.07;;
65831;SDS011;52593;42.648;23.332;2023-12-28T00:35:28;13.60;;;5.05;;
65831;SDS011;52593;42.648;23.332;2023-12-28T00:37:53;13.93;;;5.68;;
65831;SDS011;52593;42.648;23.332;2023-12-28T00:40:19;15.13;;;5.60;;
65831;SDS011;52593;42.648;23.332;2023-12-28T00:42:44;19.17;;;6.00;;
65831;SDS011;52593;42.648;23.332;2023-12-28T00:45:10;13.83;;;5.30;;
65831;SDS011;52593;42.648;23.332;2023-12-28T00:47:35;13.60;;;5.90;;
65831;SDS011;52593;42.648;23.332;2023-12-28T00:50:01;13.30;;;5.50;;
65831;SDS011;52593;42.648;23.332;2023-12-28T00:52:26;12.20;;;5.03;;
65831;SDS011;52593;42.648;23.332;2023-12-28T00:54:52;15.20;;;5.72;;
65831;SDS011;52593;42.648;23.332;2023-12-28T00:57:17;14.30;;;5.67;;
65831;SDS011;52593;42.648;23.332;2023-12-28T00:59:43;15.03;;;5.57;;
65831;SDS011;52593;42.648;23.332;2023-12-28T01:02:09;12.05;;;5.28;;
65831;SDS011;52593;42.648;23.332;2023-12-28T01:04:34;14.57;;;5.20;;
65831;SDS011;52593;42.648;23.332;2023-12-28T01:07:00;14.75;;;4.95;;
65831;SDS011;52593;42.648;23.332;2023-12-28T01:09:27;18.33;;;5.60;;
65831;SDS011;52593;42.648;23.332;2023-12-28T01:11:53;13.32;;;5.47;;
65831;SDS011;52593;42.648;23.332;2023-12-28T01:14:19;13.82;;;4.80;;
65831;SDS011;52593;42.648;23.332;2023-12-28T01:16:44;14.93;;;5.53;;
65831;SDS011;52593;42.648;23.332;2023-12-28T01:19:10;12.43;;;5.10;;
65831;SDS011;52593;42.648;23.332;2023-12-28T01:21:35;11.30;;;4.88;;
65831;SDS011;52593;42.648;23.332;2023-12-28T01:24:01;14.83;;;5.03;;
65831;SDS011;52593;42.648;23.332;2023-12-28T01:26:27;11.00;;;4.13;;
65831;SDS011;52593;42.648;23.332;2023-12-28T01:28:52;11.50;;;4.70;;
65831;SDS011;52593;42.648;23.332;2023-12-28T01:31:18;13.27;;;4.87;;
65831;SDS011;52593;42.648;23.332;2023-12-28T01:33:43;12.63;;;4.72;;
65831;SDS011;52593;42.648;23.332;2023-12-28T01:36:18;12.97;;;4.87;;
65831;SDS011;52593;42.648;23.332;2023-12-28T01:38:44;12.90;;;5.07;;
65831;SDS011;52593;42.648;23.332;2023-12-28T01:41:10;10.67;;;4.50;;
65831;SDS011;52593;42.648;23.332;2023-12-28T01:43:37;13.85;;;5.10;;
65831;SDS011;52593;42.648;23.332;2023-12-28T01:46:04;15.68;;;5.47;;
65831;SDS011;52593;42.648;23.332;2023-12-28T01:48:35;14.43;;;5.18;;
65831;SDS011;52593;42.648;23.332;2023-12-28T01:51:02;14.77;;;5.50;;
65831;SDS011;52593;42.648;23.332;2023-12-28T01:53:27;11.90;;;4.70;;
65831;SDS011;52593;42.648;23.332;2023-12-28T01:55:54;12.98;;;5.30;;
65831;SDS011;52593;42.648;23.332;2023-12-28T01:58:20;12.82;;;5.18;;
65831;SDS011;52593;42.648;23.332;2023-12-28T02:00:45;16.90;;;5.50;;
65831;SDS011;52593;42.648;23.332;2023-12-28T02:03:12;10.85;;;5.18;;
65831;SDS011;52593;42.648;23.332;2023-12-28T02:05:38;13.20;;;5.43;;
65831;SDS011;52593;42.648;23.332;2023-12-28T02:08:05;15.88;;;5.32;;
65831;SDS011;52593;42.648;23.332;2023-12-28T02:10:30;13.47;;;5.20;;
65831;SDS011;52593;42.648;23.332;2023-12-28T02:12:56;15.00;;;5.82;;
65831;SDS011;52593;42.648;23.332;2023-12-28T02:15:21;13.47;;;5.50;;
65831;SDS011;52593;42.648;23.332;2023-12-28T02:17:51;16.58;;;5.60;;
65831;SDS011;52593;42.648;23.332;2023-12-28T02:20:41;14.00;;;5.78;;
65831;SDS011;52593;42.648;23.332;2023-12-28T02:23:08;13.38;;;5.93;;
65831;SDS011;52593;42.648;23.332;2023-12-28T02:25:35;18.33;;;6.13;;
65831;SDS011;52593;42.648;23.332;2023-12-28T02:28:00;14.90;;;5.45;;
65831;SDS011;52593;42.648;23.332;2023-12-28T02:30:26;15.03;;;6.47;;
65831;SDS011;52593;42.648;23.332;2023-12-28T02:35:42;18.98;;;5.70;;
65831;SDS011;52593;42.648;23.332;2023-12-28T02:38:13;14.90;;;5.80;;
65831;SDS011;52593;42.648;23.332;2023-12-28T02:40:40;15.77;;;6.07;;
65831;SDS011;52593;42.648;23.332;2023-12-28T02:43:09;14.38;;;5.65;;
65831;SDS011;52593;42.648;23.332;2023-12-28T02:45:35;18.65;;;6.18;;
65831;SDS011;52593;42.648;23.332;2023-12-28T02:48:02;14.80;;;5.45;;
65831;SDS011;52593;42.648;23.332;2023-12-28T02:50:28;15.30;;;5.77;;
65831;SDS011;52593;42.648;23.332;2023-12-28T02:52:55;14.48;;;5.55;;
65831;SDS011;52593;42.648;23.332;2023-12-28T02:55:21;16.27;;;5.82;;
65831;SDS011;52593;42.648;23.332;2023-12-28T02:57:47;16.83;;;5.90;;
65831;SDS011;52593;42.648;23.332;2023-12-28T03:00:14;13.75;;;5.40;;
65831;SDS011;52593;42.648;23.332;2023-12-28T03:02:40;12.45;;;5.22;;
65831;SDS011;52593;42.648;23.332;2023-12-28T03:05:05;13.20;;;5.37;;
65831;SDS011;52593;42.648;23.332;2023-12-28T03:07:31;14.02;;;5.28;;
65831;SDS011;52593;42.648;23.332;2023-12-28T03:09:58;18.70;;;5.32;;
65831;SDS011;52593;42.648;23.332;2023-12-28T03:12:23;14.83;;;5.13;;
65831;SDS011;52593;42.648;23.332;2023-12-28T03:14:49;15.20;;;5.23;;
65831;SDS011;52593;42.648;23.332;2023-12-28T03:17:15;13.05;;;5.40;;
65831;SDS011;52593;42.648;23.332;2023-12-28T03:19:40;13.83;;;5.37;;
65831;SDS011;52593;42.648;23.332;2023-12-28T03:22:06;15.80;;;5.40;;
65831;SDS011;52593;42.648;23.332;2023-12-28T03:24:31;13.57;;;5.80;;
65831;SDS011;52593;42.648;23.332;2023-12-28T03:26:57;14.27;;;5.53;;
65831;SDS011;52593;42.648;23.332;2023-12-28T03:29:23;15.80;;;6.00;;
65831;SDS011;52593;42.648;23.332;2023-12-28T03:31:49;15.70;;;5.68;;
65831;SDS011;52593;42.648;23.332;2023-12-28T03:34:15;16.40;;;5.80;;
65831;SDS011;52593;42.648;23.332;2023-12-28T03:36:40;13.70;;;5.33;;
65831;SDS011;52593;42.648;23.332;2023-12-28T03:39:06;14.30;;;5.13;;
65831;SDS011;52593;42.648;23.332;2023-12-28T03:41:33;12.93;;;4.43;;
65831;SDS011;52593;42.648;23.332;2023-12-28T03:43:59;13.65;;;4.80;;
65831;SDS011;52593;42.648;23.332;2023-12-28T03:46:24;12.43;;;4.63;;
65831;SDS011;52593;42.648;23.332;2023-12-28T03:48:51;14.70;;;5.93;;
65831;SDS011;52593;42.648;23.332;2023-12-28T03:51:17;14.47;;;5.17;;
65831;SDS011;52593;42.648;23.332;2023-12-28T03:53:43;10.98;;;5.25;;
65831;SDS011;52593;42.648;23.332;2023-12-28T03:56:17;12.68;;;5.32;;
65831;SDS011;52593;42.648;23.332;2023-12-28T03:58:53;14.10;;;5.27;;
65831;SDS011;52593;42.648;23.332;2023-12-28T04:01:19;11.68;;;5.50;;
65831;SDS011;52593;42.648;23.332;2023-12-28T04:03:46;12.93;;;5.55;;
65831;SDS011;52593;42.648;23.332;2023-12-28T04:06:13;12.40;;;5.50;;
65831;SDS011;52593;42.648;23.332;2023-12-28T04:08:39;12.93;;;5.35;;
65831;SDS011;52593;42.648;23.332;2023-12-28T04:11:05;16.60;;;5.47;;
65831;SDS011;52593;42.648;23.332;2023-12-28T04:13:31;19.20;;;5.97;;
65831;SDS011;52593;42.648;23.332;2023-12-28T04:15:57;16.93;;;6.20;;
65831;SDS011;52593;42.648;23.332;2023-12-28T04:18:22;15.88;;;6.57;;
65831;SDS011;52593;42.648;23.332;2023-12-28T04:20:48;15.13;;;5.87;;
65831;SDS011;52593;42.648;23.332;2023-12-28T04:23:14;15.57;;;6.43;;
65831;SDS011;52593;42.648;23.332;2023-12-28T04:25:39;13.77;;;6.28;;
65831;SDS011;52593;42.648;23.332;2023-12-28T04:28:05;14.95;;;6.68;;
65831;SDS011;52593;42.648;23.332;2023-12-28T04:30:31;20.67;;;6.87;;
65831;SDS011;52593;42.648;23.332;2023-12-28T04:32:57;17.67;;;6.97;;
65831;SDS011;52593;42.648;23.332;2023-12-28T04:35:23;18.27;;;7.17;;
65831;SDS011;52593;42.648;23.332;2023-12-28T04:37:48;17.73;;;7.15;;
65831;SDS011;52593;42.648;23.332;2023-12-28T04:40:14;17.60;;;6.60;;
65831;SDS011;52593;42.648;23.332;2023-12-28T04:42:40;22.27;;;8.63;;
65831;SDS011;52593;42.648;23.332;2023-12-28T04:45:06;22.20;;;8.40;;
65831;SDS011;52593;42.648;23.332;2023-12-28T04:47:32;22.75;;;9.77;;
65831;SDS011;52593;42.648;23.332;2023-12-28T04:49:58;21.53;;;8.50;;
65831;SDS011;52593;42.648;23.332;2023-12-28T04:52:23;20.85;;;8.65;;
65831;SDS011;52593;42.648;23.332;2023-12-28T04:54:49;21.07;;;8.57;;
65831;SDS011;52593;42.648;23.332;2023-12-28T04:57:14;23.40;;;8.80;;
65831;SDS011;52593;42.648;23.332;2023-12-28T04:59:40;27.02;;;9.25;;
65831;SDS011;52593;42.648;23.332;2023-12-28T05:02:06;26.52;;;9.48;;
65831;SDS011;52593;42.648;23.332;2023-12-28T05:04:32;21.50;;;9.63;;
65831;SDS011;52593;42.648;23.332;2023-12-28T05:06:57;26.20;;;9.93;;
65831;SDS011;52593;42.648;23.332;2023-12-28T05:09:23;18.83;;;8.37;;
65831;SDS011;52593;42.648;23.332;2023-12-28T05:11:48;20.73;;;9.43;;
65831;SDS011;52593;42.648;23.332;2023-12-28T05:14:14;23.05;;;9.13;;
65831;SDS011;52593;42.648;23.332;2023-12-28T05:16:39;22.47;;;9.27;;
65831;SDS011;52593;42.648;23.332;2023-12-28T05:19:05;21.70;;;8.47;;
65831;SDS011;52593;42.648;23.332;2023-12-28T05:21:30;25.95;;;9.00;;
65831;SDS011;52593;42.648;23.332;2023-12-28T05:23:56;23.97;;;8.53;;
65831;SDS011;52593;42.648;23.332;2023-12-28T05:26:21;22.67;;;8.77;;
65831;SDS011;52593;42.648;23.332;2023-12-28T05:28:48;21.90;;;8.98;;
65831;SDS011;52593;42.648;23.332;2023-12-28T05:31:13;22.58;;;8.88;;
65831;SDS011;52593;42.648;23.332;2023-12-28T05:33:39;23.40;;;8.93;;
65831;SDS011;52593;42.648;23.332;2023-12-28T05:36:05;23.17;;;8.43;;
65831;SDS011;52593;42.648;23.332;2023-12-28T05:38:31;19.45;;;8.63;;
65831;SDS011;52593;42.648;23.332;2023-12-28T05:40:56;22.55;;;9.23;;
65831;SDS011;52593;42.648;23.332;2023-12-28T05:43:22;25.93;;;9.00;;
65831;SDS011;52593;42.648;23.332;2023-12-28T05:45:47;23.30;;;8.97;;
65831;SDS011;52593;42.648;23.332;2023-12-28T05:48:13;23.13;;;8.93;;
65831;SDS011;52593;42.648;23.332;2023-12-28T05:50:38;21.75;;;9.35;;
65831;SDS011;52593;42.648;23.332;2023-12-28T05:53:05;21.37;;;8.90;;
65831;SDS011;52593;42.648;23.332;2023-12-28T05:55:30;17.67;;;8.27;;
65831;SDS011;52593;42.648;23.332;2023-12-28T05:57:56;24.33;;;9.40;;
65831;SDS011;52593;42.648;23.332;2023-12-28T06:00:21;28.27;;;10.17;;
65831;SDS011;52593;42.648;23.332;2023-12-28T06:02:47;19.45;;;8.88;;
65831;SDS011;52593;42.648;23.332;2023-12-28T06:05:16;26.93;;;9.63;;
65831;SDS011;52593;42.648;23.332;2023-12-28T06:07:42;21.50;;;8.50;;
65831;SDS011;52593;42.648;23.332;2023-12-28T06:10:08;22.80;;;8.53;;
65831;SDS011;52593;42.648;23.332;2023-12-28T06:12:34;21.10;;;8.40;;
65831;SDS011;52593;42.648;23.332;2023-12-28T06:14:59;20.35;;;8.20;;
65831;SDS011;52593;42.648;23.332;2023-12-28T06:17:25;20.70;;;8.20;;
65831;SDS011;52593;42.648;23.332;2023-12-28T06:19:50;19.77;;;7.47;;
65831;SDS011;52593;42.648;23.332;2023-12-28T06:22:16;18.23;;;7.47;;
65831;SDS011;52593;42.648;23.332;2023-12-28T06:24:41;20.93;;;8.60;;
65831;SDS011;52593;42.648;23.332;2023-12-28T06:27:07;15.80;;;6.93;;
65831;SDS011;52593;42.648;23.332;2023-12-28T06:29:32;18.83;;;7.07;;
65831;SDS011;52593;42.648;23.332;2023-12-28T06:31:58;18.15;;;7.28;;
65831;SDS011;52593;42.648;23.332;2023-12-28T06:34:23;18.67;;;7.23;;
65831;SDS011;52593;42.648;23.332;2023-12-28T06:36:48;16.63;;;6.93;;
65831;SDS011;52593;42.648;23.332;2023-12-28T06:39:14;19.83;;;7.33;;
65831;SDS011;52593;42.648;23.332;2023-12-28T06:41:39;19.45;;;7.95;;
65831;SDS011;52593;42.648;23.332;2023-12-28T06:44:05;21.17;;;7.37;;
65831;SDS011;52593;42.648;23.332;2023-12-28T06:46:30;21.40;;;8.30;;
65831;SDS011;52593;42.648;23.332;2023-12-28T06:48:56;25.00;;;7.80;;
65831;SDS011;52593;42.648;23.332;2023-12-28T06:51:24;19.13;;;7.00;;
65831;SDS011;52593;42.648;23.332;2023-12-28T06:53:49;19.35;;;7.72;;
65831;SDS011;52593;42.648;23.332;2023-12-28T06:56:15;22.40;;;7.77;;
65831;SDS011;52593;42.648;23.332;2023-12-28T06:58:41;21.30;;;9.07;;
65831;SDS011;52593;42.648;23.332;2023-12-28T07:01:06;22.17;;;8.25;;
65831;SDS011;52593;42.648;23.332;2023-12-28T07:03:32;26.73;;;9.47;;
65831;SDS011;52593;42.648;23.332;2023-12-28T07:05:58;24.10;;;8.65;;
65831;SDS011;52593;42.648;23.332;2023-12-28T07:08:24;22.52;;;8.95;;
65831;SDS011;52593;42.648;23.332;2023-12-28T07:10:50;31.07;;;11.53;;
65831;SDS011;52593;42.648;23.332;2023-12-28T07:13:16;22.05;;;9.63;;
65831;SDS011;52593;42.648;23.332;2023-12-28T07:15:41;23.47;;;9.17;;
65831;SDS011;52593;42.648;23.332;2023-12-28T07:18:07;20.45;;;8.23;;
65831;SDS011;52593;42.648;23.332;2023-12-28T07:20:33;23.03;;;9.60;;
65831;SDS011;52593;42.648;23.332;2023-12-28T07:22:58;19.35;;;8.57;;
65831;SDS011;52593;42.648;23.332;2023-12-28T07:25:24;20.20;;;8.97;;
65831;SDS011;52593;42.648;23.332;2023-12-28T07:27:49;24.23;;;8.50;;
65831;SDS011;52593;42.648;23.332;2023-12-28T07:30:15;23.55;;;9.55;;
65831;SDS011;52593;42.648;23.332;2023-12-28T07:32:42;23.08;;;9.40;;
65831;SDS011;52593;42.648;23.332;2023-12-28T07:35:08;22.07;;;8.17;;
65831;SDS011;52593;42.648;23.332;2023-12-28T07:37:34;19.25;;;8.63;;
65831;SDS011;52593;42.648;23.332;2023-12-28T07:40:00;24.37;;;9.00;;
65831;SDS011;52593;42.648;23.332;2023-12-28T07:42:25;18.92;;;8.35;;
65831;SDS011;52593;42.648;23.332;2023-12-28T07:44:51;24.63;;;8.80;;
65831;SDS011;52593;42.648;23.332;2023-12-28T07:47:17;19.87;;;8.60;;
65831;SDS011;52593;42.648;23.332;2023-12-28T07:49:42;22.67;;;7.90;;
65831;SDS011;52593;42.648;23.332;2023-12-28T07:52:08;20.23;;;7.73;;
65831;SDS011;52593;42.648;23.332;2023-12-28T07:54:33;20.60;;;8.95;;
65831;SDS011;52593;42.648;23.332;2023-12-28T07:56:59;21.63;;;8.77;;
65831;SDS011;52593;42.648;23.332;2023-12-28T07:59:25;22.60;;;9.07;;
65831;SDS011;52593;42.648;23.332;2023-12-28T08:01:50;24.70;;;9.20;;
65831;SDS011;52593;42.648;23.332;2023-12-28T08:04:16;22.25;;;8.55;;
65831;SDS011;52593;42.648;23.332;2023-12-28T08:06:41;22.60;;;9.60;;
65831;SDS011;52593;42.648;23.332;2023-12-28T08:09:07;22.47;;;10.23;;
65831;SDS011;52593;42.648;23.332;2023-12-28T08:11:33;25.23;;;9.85;;
65831;SDS011;52593;42.648;23.332;2023-12-28T08:13:59;25.42;;;10.38;;
65831;SDS011;52593;42.648;23.332;2023-12-28T08:16:25;21.63;;;8.67;;
65831;SDS011;52593;42.648;23.332;2023-12-28T08:18:51;24.10;;;9.63;;
65831;SDS011;52593;42.648;23.332;2023-12-28T08:21:17;34.50;;;14.57;;
65831;SDS011;52593;42.648;23.332;2023-12-28T08:23:43;27.35;;;11.65;;
65831;SDS011;52593;42.648;23.332;2023-12-28T08:26:08;29.58;;;11.63;;
65831;SDS011;52593;42.648;23.332;2023-12-28T08:28:35;30.57;;;11.50;;
65831;SDS011;52593;42.648;23.332;2023-12-28T08:31:00;23.77;;;10.00;;
65831;SDS011;52593;42.648;23.332;2023-12-28T08:33:26;26.57;;;10.70;;
65831;SDS011;52593;42.648;23.332;2023-12-28T08:35:51;26.77;;;10.30;;
65831;SDS011;52593;42.648;23.332;2023-12-28T08:38:17;26.05;;;10.50;;
65831;SDS011;52593;42.648;23.332;2023-12-28T08:40:42;29.97;;;10.47;;
65831;SDS011;52593;42.648;23.332;2023-12-28T08:43:09;23.70;;;9.13;;
65831;SDS011;52593;42.648;23.332;2023-12-28T08:45:35;19.87;;;8.73;;
65831;SDS011;52593;42.648;23.332;2023-12-28T08:48:00;19.80;;;8.93;;
65831;SDS011;52593;42.648;23.332;2023-12-28T08:50:26;20.30;;;7.30;;
65831;SDS011;52593;42.648;23.332;2023-12-28T08:52:52;18.77;;;8.00;;
65831;SDS011;52593;42.648;23.332;2023-12-28T08:55:36;18.70;;;7.45;;
65831;SDS011;52593;42.648;23.332;2023-12-28T08:58:01;15.97;;;6.50;;
65831;SDS011;52593;42.648;23.332;2023-12-28T09:00:27;16.43;;;6.67;;
65831;SDS011;52593;42.648;23.332;2023-12-28T09:02:53;15.40;;;6.72;;
65831;SDS011;52593;42.648;23.332;2023-12-28T09:05:18;23.37;;;7.43;;
65831;SDS011;52593;42.648;23.332;2023-12-28T09:07:44;17.52;;;7.40;;
65831;SDS011;52593;42.648;23.332;2023-12-28T09:10:10;15.23;;;7.03;;
65831;SDS011;52593;42.648;23.332;2023-12-28T09:12:36;15.52;;;6.28;;
65831;SDS011;52593;42.648;23.332;2023-12-28T09:15:02;16.27;;;6.17;;
65831;SDS011;52593;42.648;23.332;2023-12-28T09:17:30;18.10;;;7.15;;
65831;SDS011;52593;42.648;23.332;2023-12-28T09:19:55;15.10;;;6.60;;
65831;SDS011;52593;42.648;23.332;2023-12-28T09:22:23;19.40;;;5.90;;
65831;SDS011;52593;42.648;23.332;2023-12-28T09:24:48;15.02;;;6.60;;
65831;SDS011;52593;42.648;23.332;2023-12-28T09:27:14;17.23;;;6.60;;
65831;SDS011;52593;42.648;23.332;2023-12-28T09:29:39;15.73;;;6.17;;
65831;SDS011;52593;42.648;23.332;2023-12-28T09:32:05;16.85;;;6.50;;
65831;SDS011;52593;42.648;23.332;2023-12-28T09:34:30;15.93;;;6.43;;
65831;SDS011;52593;42.648;23.332;2023-12-28T09:36:56;18.92;;;7.45;;
65831;SDS011;52593;42.648;23.332;2023-12-28T09:39:21;19.10;;;8.10;;
65831;SDS011;52593;42.648;23.332;2023-12-28T09:41:48;21.97;;;8.80;;
65831;SDS011;52593;42.648;23.332;2023-12-28T09:44:20;20.35;;;8.85;;
65831;SDS011;52593;42.648;23.332;2023-12-28T09:46:47;22.38;;;9.27;;
65831;SDS011;52593;42.648;23.332;2023-12-28T09:49:13;20.43;;;8.77;;
65831;SDS011;52593;42.648;23.332;2023-12-28T09:51:39;20.52;;;8.40;;
65831;SDS011;52593;42.648;23.332;2023-12-28T09:54:05;18.80;;;9.15;;
65831;SDS011;52593;42.648;23.332;2023-12-28T09:56:31;24.63;;;9.00;;
65831;SDS011;52593;42.648;23.332;2023-12-28T09:58:57;20.50;;;9.82;;
65831;SDS011;52593;42.648;23.332;2023-12-28T10:01:24;28.73;;;9.90;;
65831;SDS011;52593;42.648;23.332;2023-12-28T10:03:50;23.93;;;10.53;;
65831;SDS011;52593;42.648;23.332;2023-12-28T10:06:16;22.83;;;11.80;;
65831;SDS011;52593;42.648;23.332;2023-12-28T10:08:45;25.30;;;11.87;;
65831;SDS011;52593;42.648;23.332;2023-12-28T10:11:13;31.92;;;11.85;;
65831;SDS011;52593;42.648;23.332;2023-12-28T10:13:45;24.80;;;11.02;;
65831;SDS011;52593;42.648;23.332;2023-12-28T10:16:11;28.70;;;12.40;;
65831;SDS011;52593;42.648;23.332;2023-12-28T10:18:44;27.13;;;12.38;;
65831;SDS011;52593;42.648;23.332;2023-12-28T10:21:10;27.77;;;11.75;;
65831;SDS011;52593;42.648;23.332;2023-12-28T10:23:36;31.10;;;13.45;;
65831;SDS011;52593;42.648;23.332;2023-12-28T10:26:03;30.38;;;13.68;;
65831;SDS011;52593;42.648;23.332;2023-12-28T10:28:36;35.30;;;14.30;;
65831;SDS011;52593;42.648;23.332;2023-12-28T10:31:05;31.30;;;14.45;;
65831;SDS011;52593;42.648;23.332;2023-12-28T10:33:34;33.67;;;15.00;;
65831;SDS011;52593;42.648;23.332;2023-12-28T10:36:01;35.87;;;14.03;;
65831;SDS011;52593;42.648;23.332;2023-12-28T10:38:35;33.63;;;14.80;;
65831;SDS011;52593;42.648;23.332;2023-12-28T10:41:02;38.05;;;15.73;;
65831;SDS011;52593;42.648;23.332;2023-12-28T10:46:29;33.67;;;14.93;;
65831;SDS011;52593;42.648;23.332;2023-12-28T10:49:09;30.30;;;15.13;;
65831;SDS011;52593;42.648;23.332;2023-12-28T10:51:38;27.80;;;12.75;;
65831;SDS011;52593;42.648;23.332;2023-12-28T10:56:46;36.25;;;14.65;;
65831;SDS011;52593;42.648;23.332;2023-12-28T11:02:06;30.13;;;14.37;;
65831;SDS011;52593;42.648;23.332;2023-12-28T11:04:37;38.13;;;15.57;;
65831;SDS011;52593;42.648;23.332;2023-12-28T11:07:07;34.10;;;14.80;;
65831;SDS011;52593;42.648;23.332;2023-12-28T11:09:34;31.80;;;14.32;;
65831;SDS011;52593;42.648;23.332;2023-12-28T11:12:02;33.95;;;14.88;;
65831;SDS011;52593;42.648;23.332;2023-12-28T11:14:32;34.80;;;15.73;;
65831;SDS011;52593;42.648;23.332;2023-12-28T11:17:00;33.88;;;14.45;;
65831;SDS011;52593;42.648;23.332;2023-12-28T11:19:27;30.70;;;13.60;;
65831;SDS011;52593;42.648;23.332;2023-12-28T11:21:55;34.88;;;13.27;;
65831;SDS011;52593;42.648;23.332;2023-12-28T11:24:21;27.05;;;12.13;;
65831;SDS011;52593;42.648;23.332;2023-12-28T11:26:54;26.70;;;11.10;;
65831;SDS011;52593;42.648;23.332;2023-12-28T11:29:20;28.38;;;12.25;;
65831;SDS011;52593;42.648;23.332;2023-12-28T11:31:50;25.30;;;11.20;;
65831;SDS011;52593;42.648;23.332;2023-12-28T11:34:16;33.63;;;12.73;;
65831;SDS011;52593;42.648;23.332;2023-12-28T11:36:52;28.80;;;13.38;;
65831;SDS011;52593;42.648;23.332;2023-12-28T11:44:28;34.85;;;17.08;;
65831;SDS011;52593;42.648;23.332;2023-12-28T11:46:54;34.90;;;15.67;;
65831;SDS011;52593;42.648;23.332;2023-12-28T11:49:24;33.42;;;15.88;;
65831;SDS011;52593;42.648;23.332;2023-12-28T11:51:56;34.67;;;14.52;;
65831;SDS011;52593;42.648;23.332;2023-12-28T11:54:25;32.97;;;15.43;;
65831;SDS011;52593;42.648;23.332;2023-12-28T11:56:51;45.40;;;19.87;;
65831;SDS011;52593;42.648;23.332;2023-12-28T11:59:20;41.50;;;18.75;;
65831;SDS011;52593;42.648;23.332;2023-12-28T12:01:53;31.08;;;15.23;;
65831;SDS011;52593;42.648;23.332;2023-12-28T12:04:19;30.65;;;13.43;;
65831;SDS011;52593;42.648;23.332;2023-12-28T12:06:45;30.05;;;13.48;;
65831;SDS011;52593;42.648;23.332;2023-12-28T12:09:15;29.90;;;12.97;;
65831;SDS011;52593;42.648;23.332;2023-12-28T12:11:41;34.20;;;12.85;;
65831;SDS011;52593;42.648;23.332;2023-12-28T12:14:10;28.20;;;12.33;;
65831;SDS011;52593;42.648;23.332;2023-12-28T12:16:36;30.13;;;13.43;;
65831;SDS011;52593;42.648;23.332;2023-12-28T12:19:05;26.15;;;11.85;;
65831;SDS011;52593;42.648;23.332;2023-12-28T12:21:34;27.75;;;11.75;;
65831;SDS011;52593;42.648;23.332;2023-12-28T12:24:00;29.37;;;12.77;;
65831;SDS011;52593;42.648;23.332;2023-12-28T12:26:26;28.20;;;12.57;;
65831;SDS011;52593;42.648;23.332;2023-12-28T12:28:54;26.02;;;12.25;;
65831;SDS011;52593;42.648;23.332;2023-12-28T12:31:20;22.67;;;11.37;;
65831;SDS011;52593;42.648;23.332;2023-12-28T12:33:46;25.98;;;11.43;;
65831;SDS011;52593;42.648;23.332;2023-12-28T12:36:12;24.80;;;11.10;;
65831;SDS011;52593;42.648;23.332;2023-12-28T12:38:38;30.53;;;11.83;;
65831;SDS011;52593;42.648;23.332;2023-12-28T12:41:03;28.10;;;11.70;;
65831;SDS011;52593;42.648;23.332;2023-12-28T12:43:29;22.27;;;10.40;;
65831;SDS011;52593;42.648;23.332;2023-12-28T12:45:54;24.88;;;10.50;;
65831;SDS011;52593;42.648;23.332;2023-12-28T12:48:20;22.93;;;10.90;;
65831;SDS011;52593;42.648;23.332;2023-12-28T12:50:47;24.08;;;10.52;;
65831;SDS011;52593;42.648;23.332;2023-12-28T12:53:12;19.13;;;9.90;;
65831;SDS011;52593;42.648;23.332;2023-12-28T12:55:38;28.83;;;13.35;;
65831;SDS011;52593;42.648;23.332;2023-12-28T12:58:11;24.50;;;11.65;;
65831;SDS011;52593;42.648;23.332;2023-12-28T13:00:38;34.17;;;15.63;;
65831;SDS011;52593;42.648;23.332;2023-12-28T13:03:08;25.63;;;12.57;;
65831;SDS011;52593;42.648;23.332;2023-12-28T13:05:35;29.98;;;13.52;;
65831;SDS011;52593;42.648;23.332;2023-12-28T13:08:02;31.92;;;13.63;;
65831;SDS011;52593;42.648;23.332;2023-12-28T13:10:28;33.28;;;14.45;;
65831;SDS011;52593;42.648;23.332;2023-12-28T13:12:54;30.53;;;14.87;;
65831;SDS011;52593;42.648;23.332;2023-12-28T13:15:19;31.53;;;14.00;;
65831;SDS011;52593;42.648;23.332;2023-12-28T13:17:45;35.07;;;15.07;;
65831;SDS011;52593;42.648;23.332;2023-12-28T13:20:11;32.33;;;14.10;;
65831;SDS011;52593;42.648;23.332;2023-12-28T13:22:36;30.48;;;15.10;;
65831;SDS011;52593;42.648;23.332;2023-12-28T13:25:02;42.60;;;17.33;;
65831;SDS011;52593;42.648;23.332;2023-12-28T13:27:29;81.05;;;44.70;;
65831;SDS011;52593;42.648;23.332;2023-12-28T13:29:55;98.07;;;53.67;;
65831;SDS011;52593;42.648;23.332;2023-12-28T13:32:21;43.22;;;19.95;;
65831;SDS011;52593;42.648;23.332;2023-12-28T13:34:48;29.02;;;13.32;;
65831;SDS011;52593;42.648;23.332;2023-12-28T13:37:15;31.77;;;14.80;;
65831;SDS011;52593;42.648;23.332;2023-12-28T13:39:41;31.52;;;14.13;;
65831;SDS011;52593;42.648;23.332;2023-12-28T13:42:07;32.73;;;14.53;;
65831;SDS011;52593;42.648;23.332;2023-12-28T13:44:36;31.02;;;13.80;;
65831;SDS011;52593;42.648;23.332;2023-12-28T13:47:02;33.13;;;14.55;;
65831;SDS011;52593;42.648;23.332;2023-12-28T13:49:28;29.05;;;13.60;;
65831;SDS011;52593;42.648;23.332;2023-12-28T13:51:54;31.13;;;13.57;;
65831;SDS011;52593;42.648;23.332;2023-12-28T13:54:20;29.27;;;14.30;;
65831;SDS011;52593;42.648;23.332;2023-12-28T13:56:46;35.08;;;14.60;;
65831;SDS011;52593;42.648;23.332;2023-12-28T13:59:12;33.73;;;13.67;;
65831;SDS011;52593;42.648;23.332;2023-12-28T14:01:38;29.27;;;13.60;;
65831;SDS011;52593;42.648;23.332;2023-12-28T14:04:04;29.88;;;13.10;;
65831;SDS011;52593;42.648;23.332;2023-12-28T14:06:30;30.10;;;14.17;;
65831;SDS011;52593;42.648;23.332;2023-12-28T14:08:55;33.70;;;13.85;;
65831;SDS011;52593;42.648;23.332;2023-12-28T14:11:22;34.13;;;13.95;;
65831;SDS011;52593;42.648;23.332;2023-12-28T14:13:50;30.23;;;13.40;;
65831;SDS011;52593;42.648;23.332;2023-12-28T14:16:16;28.73;;;13.85;;
65831;SDS011;52593;42.648;23.332;2023-12-28T14:18:41;29.30;;;13.37;;
65831;SDS011;52593;42.648;23.332;2023-12-28T14:21:08;33.83;;;13.60;;
65831;SDS011;52593;42.648;23.332;2023-12-28T14:23:34;32.22;;;13.75;;
65831;SDS011;52593;42.648;23.332;2023-12-28T14:26:02;30.50;;;13.68;;
65831;SDS011;52593;42.648;23.332;2023-12-28T14:28:30;35.57;;;14.17;;
65831;SDS011;52593;42.648;23.332;2023-12-28T14:30:57;35.90;;;13.55;;